Details From MKJP - Norman Manley Intl
To SVMI - Caracas Simon Bolivar Intl
Flight Number -
Tags Decoded
Created
Modified
Stats Distance 661 nm / 1,224 km
Max Altitude 0 ft / 0 m
Waypoints 4
Social Downloads 1
Likes 0
Share VATSIM

Download

Looking for another format? Having issues loading an existing format? Contact us
Advertisement - Login to hide

Notes

Decoded

Route

URMAN AMBIN VSJ ROMEX

ID Type Via Altitude Latitude Longitude Leg Dist Tot Dist Heading (true) Name
O URMAN FIX - 0 ft / 0 m 17.51016˚ -76.24860˚ - 0 nm - -
AMBIN FIX - 0 ft / 0 m 15.68333˚ -74.00000˚ 169 nm 169 nm 130° / 131° -
VSJ VOR - 0 ft / 0 m 11.17058˚ -68.41619˚ 424 nm 593 nm 129° / 130° PUNTA SAN JUAN VOR-DME
O ROMEX FIX - 0 ft / 0 m 10.66142˚ -67.39703˚ 67 nm 661 nm 117° / 117° -

Altitude Profile

Advertisement - Login to hide

Weather


0- 5 10 15 20 25 30 35+ Temperature / ° C

Clouds and Precipitation
Forecast for 2017-12-11 12:00 UTC. Updated 19 minutes ago

Ground ~20,000 ft ~40,000 ft Winds

MKJP

Details ICAO MKJP (KIN)
Name Norman Manley Intl
Region Jamaica
Timezone Unknown (UTC+0.0)
Stats Elevation 10 ft / 3 m (AMSL)
Location 17.935665° -76.787560°
Runways 1
Magnetic Variation 7.540° W

METAR

MKJP 110900Z 36014KT 9999 FEW020 BKN036 26/24 Q1012

Decode

TAF

TAF MKJP 110515Z 1106/1206 36008KT 9999 FEW020 SCT036 BECMG 1113/1115 14010KT TEMPO 1114/1124 SHRA SCT018 BKN034 BECMG 1123/1201 36009KT

Decode

Departure Runways

ID Width Length Bearing (true) Bearing (mag) Surface Threshold Offset Overrun Length
12 150 ft / 46 m 8,912 ft / 2,717 m 112.09° 119.63° Asphalt 0 ft / 0 m 0 ft / 0 m
30 150 ft / 46 m 8,912 ft / 2,717 m 292.10° 299.64° Asphalt 0 ft / 0 m 0 ft / 0 m

SVMI

Details ICAO SVMI (CCS)
Name Caracas Simon Bolivar Intl
Region Venezuela
Timezone America/Caracas (UTC-4.0)
Stats Elevation 235 ft / 72 m (AMSL)
Location 10.603119° -66.990585°
Runways 2
Magnetic Variation 12.287° W

METAR

SVMI 110900Z 00000KT 9999 FEW016 26/20 Q1010

Decode

TAF

Not found

Destination Runways

ID Width Length Bearing (true) Bearing (mag) Surface Threshold Offset Overrun Length
09 145 ft / 44 m 9,825 ft / 2,995 m 75.92° 88.21° Asphalt 0 ft / 0 m 0 ft / 0 m
10 148 ft / 45 m 11,472 ft / 3,497 m 88.14° 100.43° Asphalt 0 ft / 0 m 200 ft / 61 m
27 145 ft / 44 m 9,825 ft / 2,995 m 255.92° 268.21° Asphalt 0 ft / 0 m 0 ft / 0 m
28 148 ft / 45 m 11,472 ft / 3,497 m 268.15° 280.44° Asphalt 0 ft / 0 m 200 ft / 61 m

Approach Navaids

Runway Type Ident Frequency Range Bearing (true) Bearing (mag) Slope Elevation
10 Localiser IMIQ 110.10 MHz 18 nm / 33 km 87.90° 100.19° - 235 ft / 72 m (AMSL)
10 Glidescope IMIQ 110.10 MHz 10 nm / 19 km 88.14° 100.43° 3.00° 235 ft / 72 m (AMSL)
10 DME IMIQ 110.10 MHz 18 nm / 33 km - - - 235 ft / 72 m (AMSL)

Popular Alternatives